createdAt,value
2022-08-05T00:01:27.635Z,16.60
2022-08-05T00:04:31.948Z,16.64
2022-08-05T00:08:00.351Z,16.67
2022-08-05T00:11:02.742Z,16.73
2022-08-05T00:14:13.079Z,16.63
2022-08-05T00:17:21.142Z,16.57
2022-08-05T00:20:29.109Z,16.70
2022-08-05T00:23:46.470Z,16.62
2022-08-05T00:26:56.741Z,16.58
2022-08-05T00:30:03.702Z,16.72
2022-08-05T00:33:07.464Z,16.84
2022-08-05T00:37:10.880Z,16.80
2022-08-05T00:39:58.340Z,16.79
2022-08-05T00:43:07.444Z,16.63
2022-08-05T00:46:13.002Z,16.68
2022-08-05T00:49:20.128Z,16.84
2022-08-05T00:52:28.754Z,16.85
2022-08-05T00:55:42.102Z,16.82
2022-08-05T00:58:46.535Z,16.73
2022-08-05T01:01:52.429Z,16.73
2022-08-05T01:04:56.115Z,16.67
2022-08-05T01:08:41.839Z,16.58
2022-08-05T01:11:33.442Z,16.44
2022-08-05T01:14:53.256Z,16.27
2022-08-05T01:18:06.254Z,16.31
2022-08-05T01:21:37.993Z,16.26
2022-08-05T01:25:04.488Z,16.38
2022-08-05T01:28:27.570Z,16.31
2022-08-05T01:31:44.668Z,16.32
2022-08-05T01:34:55.752Z,16.21
2022-08-05T01:38:04.056Z,16.04
2022-08-05T01:41:09.204Z,16.02
2022-08-05T01:44:18.246Z,15.91
2022-08-05T01:47:38.633Z,15.95
2022-08-05T01:50:51.069Z,15.89
2022-08-05T01:54:00.270Z,15.93
2022-08-05T01:58:10.214Z,16.05
2022-08-05T02:00:38.055Z,15.94
2022-08-05T02:03:48.728Z,15.93
2022-08-05T02:06:54.255Z,15.92
2022-08-05T02:10:00.508Z,15.87
2022-08-05T02:13:16.540Z,15.77
2022-08-05T02:16:29.495Z,15.75
2022-08-05T02:19:46.947Z,15.61
2022-08-05T02:22:59.775Z,15.54
2022-08-05T02:26:07.520Z,15.44
2022-08-05T02:29:21.694Z,15.41
2022-08-05T02:32:35.434Z,15.41
2022-08-05T02:35:47.350Z,15.36
2022-08-05T02:39:03.084Z,15.39
2022-08-05T02:42:09.458Z,15.41
2022-08-05T02:45:51.484Z,15.46
2022-08-05T02:48:59.458Z,15.43
2022-08-05T02:52:06.623Z,15.36
2022-08-05T02:55:12.424Z,15.35
2022-08-05T02:58:20.524Z,15.38
2022-08-05T03:01:27.465Z,15.28
2022-08-05T03:04:34.748Z,15.27
2022-08-05T03:08:06.648Z,15.26
2022-08-05T03:11:54.694Z,15.23
2022-08-05T03:14:29.632Z,15.18
2022-08-05T03:17:34.451Z,15.13
2022-08-05T03:20:48.862Z,15.21
2022-08-05T03:23:53.883Z,15.12
2022-08-05T03:26:58.135Z,15.11
2022-08-05T03:30:08.620Z,15.10
2022-08-05T03:33:13.065Z,15.06
2022-08-05T03:36:18.169Z,15.07
2022-08-05T03:39:47.183Z,15.13
2022-08-05T03:42:58.147Z,15.06
2022-08-05T03:46:01.937Z,15.01
2022-08-05T03:49:05.624Z,15.00
2022-08-05T03:52:48.516Z,15.02
2022-08-05T03:56:10.186Z,15.05
2022-08-05T03:59:22.470Z,15.08
2022-08-05T04:02:37.381Z,15.23
2022-08-05T04:05:46.065Z,15.29
2022-08-05T04:08:54.571Z,15.27
2022-08-05T04:11:58.373Z,15.41
2022-08-05T04:15:02.226Z,15.42
2022-08-05T04:18:09.841Z,15.45
2022-08-05T04:21:19.901Z,15.46
2022-08-05T04:24:43.971Z,15.47
2022-08-05T04:27:58.064Z,15.52
2022-08-05T04:31:05.140Z,15.56
2022-08-05T04:34:31.830Z,15.64
2022-08-05T04:38:02.880Z,15.69
2022-08-05T04:41:03.443Z,15.71
2022-08-05T04:44:08.926Z,15.70
2022-08-05T04:47:17.004Z,15.77
2022-08-05T04:50:34.458Z,15.82
2022-08-05T04:53:41.444Z,15.79
2022-08-05T04:56:48.066Z,15.76
2022-08-05T04:59:51.712Z,15.80
2022-08-05T05:02:59.126Z,15.80
2022-08-05T05:06:39.187Z,15.76
2022-08-05T05:09:35.216Z,15.81
2022-08-05T05:12:42.712Z,15.85
2022-08-05T05:15:57.577Z,15.94
2022-08-05T05:19:18.986Z,15.96
2022-08-05T05:22:26.317Z,16.04
2022-08-05T05:25:33.028Z,16.08
2022-08-05T05:28:46.055Z,16.07
2022-08-05T05:31:50.287Z,16.09
2022-08-05T05:34:55.064Z,16.19
2022-08-05T05:38:02.201Z,16.30
2022-08-05T05:41:07.645Z,16.42
2022-08-05T05:44:35.921Z,16.38
2022-08-05T05:48:05.706Z,16.51
2022-08-05T05:51:15.097Z,16.76
2022-08-05T05:54:49.863Z,16.80
2022-08-05T05:57:52.699Z,16.60
2022-08-05T06:01:02.489Z,16.54
2022-08-05T06:04:17.289Z,16.50
2022-08-05T06:07:22.432Z,16.38
2022-08-05T06:10:29.369Z,16.53
2022-08-05T06:13:40.706Z,16.58
2022-08-05T06:16:57.015Z,16.51
2022-08-05T06:20:00.971Z,16.48
2022-08-05T06:23:04.614Z,16.54
2022-08-05T06:26:13.879Z,16.55
2022-08-05T06:29:52.062Z,16.51
2022-08-05T06:32:51.284Z,16.53
2022-08-05T06:36:07.538Z,16.57
2022-08-05T06:39:13.992Z,16.62
2022-08-05T06:42:17.968Z,16.64
2022-08-05T06:45:45.055Z,16.69
2022-08-05T06:48:56.757Z,16.75
2022-08-05T06:52:03.083Z,16.82
2022-08-05T06:55:07.677Z,16.85
2022-08-05T06:58:30.229Z,16.87
2022-08-05T07:01:35.198Z,16.77
2022-08-05T07:04:40.210Z,16.64
2022-08-05T07:07:49.010Z,16.63
2022-08-05T07:10:53.902Z,16.68
2022-08-05T07:14:28.981Z,16.62
2022-08-05T07:18:00.618Z,16.60
2022-08-05T07:21:05.534Z,16.69
2022-08-05T07:24:11.208Z,16.73
2022-08-05T07:27:15.387Z,16.79
2022-08-05T07:30:25.373Z,16.67
2022-08-05T07:33:36.439Z,16.69
2022-08-05T07:36:42.420Z,16.85
2022-08-05T07:40:26.480Z,16.75
2022-08-05T07:43:20.092Z,16.90
2022-08-05T07:46:26.694Z,16.77
2022-08-05T07:49:30.483Z,16.81
2022-08-05T07:52:41.690Z,16.72
2022-08-05T07:56:05.795Z,16.78
2022-08-05T07:59:11.762Z,16.75
2022-08-05T08:02:18.825Z,16.74
2022-08-05T08:05:22.530Z,16.74
2022-08-05T08:08:31.542Z,16.78
2022-08-05T08:11:47.609Z,16.60
2022-08-05T08:15:02.191Z,16.54
2022-08-05T08:18:14.000Z,16.62
2022-08-05T08:21:18.482Z,16.73
2022-08-05T08:24:23.661Z,16.70
2022-08-05T08:27:51.291Z,16.51
2022-08-05T08:30:55.377Z,16.53
2022-08-05T08:33:59.038Z,16.60
2022-08-05T08:37:05.251Z,16.73
2022-08-05T08:40:12.763Z,16.73
2022-08-05T08:45:20.352Z,16.66
2022-08-05T08:46:43.012Z,16.62
2022-08-05T08:50:06.142Z,16.66
2022-08-05T08:53:17.979Z,16.70
2022-08-05T08:56:27.208Z,16.81
2022-08-05T08:59:33.628Z,16.75
2022-08-05T09:02:38.523Z,16.74
2022-08-05T09:06:07.582Z,16.69
2022-08-05T09:09:07.148Z,16.76
2022-08-05T09:12:30.231Z,16.70
2022-08-05T09:15:37.065Z,16.73
2022-08-05T09:18:43.778Z,16.65
2022-08-05T09:22:30.917Z,16.68
2022-08-05T09:25:13.999Z,16.74
2022-08-05T09:28:31.654Z,16.75
2022-08-05T09:32:41.865Z,16.74
2022-08-05T09:35:02.834Z,16.77
2022-08-05T09:38:16.422Z,16.76
2022-08-05T09:41:21.560Z,16.63
2022-08-05T09:44:42.622Z,16.53
2022-08-05T09:47:55.362Z,16.25
2022-08-05T09:51:02.787Z,16.40
2022-08-05T09:54:09.421Z,16.41
2022-08-05T09:57:30.461Z,16.43
2022-08-05T10:00:42.063Z,16.56
2022-08-05T10:04:00.236Z,16.56
2022-08-05T10:07:19.536Z,16.42
2022-08-05T10:10:32.450Z,16.62
2022-08-05T10:13:47.883Z,16.56
2022-08-05T10:16:56.346Z,16.69
2022-08-05T10:20:03.677Z,16.53
2022-08-05T10:23:34.339Z,16.60
2022-08-05T10:26:48.955Z,16.63
2022-08-05T10:30:06.314Z,16.63
2022-08-05T10:33:24.219Z,16.67
2022-08-05T10:36:32.678Z,16.73
2022-08-05T10:40:04.134Z,16.64
2022-08-05T10:43:23.850Z,16.69
2022-08-05T10:46:50.696Z,16.66
2022-08-05T10:50:32.455Z,16.78
2022-08-05T10:53:45.889Z,16.83
2022-08-05T10:56:53.142Z,16.99
2022-08-05T11:00:13.435Z,17.09
2022-08-05T11:03:25.144Z,17.06
2022-08-05T11:06:33.188Z,17.21
2022-08-05T11:09:46.893Z,17.11
2022-08-05T11:12:54.926Z,17.26
2022-08-05T11:16:33.952Z,17.49
2022-08-05T11:20:10.643Z,17.42
2022-08-05T11:24:05.020Z,17.45
2022-08-05T11:27:50.785Z,17.36
2022-08-05T11:31:58.293Z,17.26
2022-08-05T11:34:54.444Z,17.53
2022-08-05T11:38:26.641Z,17.73
2022-08-05T11:41:57.988Z,17.87
2022-08-05T11:44:55.551Z,18.02
2022-08-05T11:48:00.001Z,18.54
2022-08-05T11:51:05.527Z,18.62
2022-08-05T11:54:10.036Z,18.77
2022-08-05T11:57:24.926Z,19.00
2022-08-05T12:00:32.370Z,19.03
2022-08-05T12:03:56.079Z,18.69
2022-08-05T12:07:02.113Z,18.66
2022-08-05T12:10:11.567Z,18.52
2022-08-05T12:13:49.111Z,18.48
2022-08-05T12:16:45.386Z,18.82
2022-08-05T12:20:27.201Z,18.85
2022-08-05T12:23:16.272Z,19.08
2022-08-05T12:26:21.814Z,19.31
2022-08-05T12:29:38.608Z,19.27
2022-08-05T12:32:50.422Z,19.50
2022-08-05T12:35:54.892Z,19.23
2022-08-05T12:39:00.439Z,19.27
2022-08-05T12:42:14.282Z,19.38
2022-08-05T12:45:53.370Z,19.45
2022-08-05T12:49:05.910Z,19.39
2022-08-05T12:52:23.856Z,19.56
2022-08-05T12:55:35.275Z,19.52
2022-08-05T12:58:52.127Z,19.44
2022-08-05T13:02:07.583Z,19.40
2022-08-05T13:05:14.573Z,19.37
2022-08-05T13:08:19.829Z,19.37
2022-08-05T13:12:01.895Z,19.52
2022-08-05T13:15:06.281Z,19.52
2022-08-05T13:18:12.509Z,19.53
2022-08-05T13:21:23.851Z,19.67
2022-08-05T13:24:51.256Z,19.83
2022-08-05T13:27:57.478Z,19.97
2022-08-05T13:31:10.985Z,20.44
2022-08-05T13:34:23.604Z,20.26
2022-08-05T13:37:34.874Z,20.21
2022-08-05T13:40:48.037Z,20.52
2022-08-05T13:43:55.477Z,20.63
2022-08-05T13:47:04.971Z,20.96
2022-08-05T13:50:16.840Z,20.84
2022-08-05T13:53:20.736Z,20.46
2022-08-05T13:56:24.464Z,20.22
2022-08-05T13:59:30.657Z,19.46
2022-08-05T14:02:35.348Z,18.96
2022-08-05T14:06:24.406Z,18.67
2022-08-05T14:09:08.627Z,18.34
2022-08-05T14:12:18.065Z,18.62
2022-08-05T14:16:05.681Z,18.77
2022-08-05T14:18:54.380Z,18.75
2022-08-05T14:22:09.258Z,18.90
2022-08-05T14:25:21.943Z,19.23
2022-08-05T14:28:27.296Z,19.46
2022-08-05T14:31:54.519Z,19.66
2022-08-05T14:34:56.864Z,19.57
2022-08-05T14:38:02.642Z,19.88
2022-08-05T14:41:08.251Z,19.96
2022-08-05T14:44:20.312Z,19.92
2022-08-05T14:48:04.204Z,19.89
2022-08-05T14:50:48.965Z,19.91
2022-08-05T14:54:06.590Z,19.86
2022-08-05T14:57:18.419Z,19.97
2022-08-05T15:00:22.446Z,19.74
2022-08-05T15:03:39.232Z,19.69
2022-08-05T15:06:49.062Z,19.64
2022-08-05T15:09:54.896Z,19.73
2022-08-05T15:13:04.278Z,19.75
2022-08-05T15:16:13.112Z,19.82
2022-08-05T15:19:23.377Z,19.94
2022-08-05T15:22:28.102Z,19.78
2022-08-05T15:25:41.070Z,19.94
2022-08-05T15:28:56.769Z,19.96
2022-08-05T15:32:03.092Z,20.00
2022-08-05T15:35:10.723Z,19.97
2022-08-05T15:38:35.635Z,19.70
2022-08-05T15:41:57.570Z,19.91
2022-08-05T15:45:02.783Z,19.83
2022-08-05T15:48:07.139Z,19.82
2022-08-05T15:51:10.839Z,19.80
2022-08-05T15:54:15.234Z,19.69
2022-08-05T15:57:21.316Z,19.77
2022-08-05T16:00:42.898Z,19.63
2022-08-05T16:03:50.883Z,19.42
2022-08-05T16:06:55.752Z,19.46
2022-08-05T16:09:59.618Z,19.36
2022-08-05T16:13:05.497Z,19.40
2022-08-05T16:16:10.620Z,19.40
2022-08-05T16:19:18.986Z,19.41
2022-08-05T16:22:39.412Z,19.26
2022-08-05T16:25:43.530Z,19.00
2022-08-05T16:28:50.031Z,19.11
2022-08-05T16:31:57.818Z,18.87
2022-08-05T16:35:02.564Z,18.86
2022-08-05T16:38:18.623Z,18.90
2022-08-05T16:42:12.783Z,18.78
2022-08-05T16:44:57.118Z,18.68
2022-08-05T16:48:03.007Z,18.86
2022-08-05T16:51:09.185Z,18.76
2022-08-05T16:54:16.241Z,18.74
2022-08-05T16:57:42.936Z,18.16
2022-08-05T17:00:49.859Z,18.17
2022-08-05T17:03:53.634Z,18.03
2022-08-05T17:07:01.285Z,17.92
2022-08-05T17:10:06.248Z,17.90
2022-08-05T17:13:16.967Z,17.86
2022-08-05T17:16:33.005Z,17.78
2022-08-05T17:19:37.718Z,17.61
2022-08-05T17:22:41.614Z,17.66
2022-08-05T17:25:45.579Z,17.56
2022-08-05T17:28:51.036Z,17.51
2022-08-05T17:31:58.206Z,17.47
2022-08-05T17:35:03.211Z,17.51
2022-08-05T17:38:09.184Z,17.31
2022-08-05T17:42:18.392Z,17.21
2022-08-05T17:44:36.676Z,17.13
2022-08-05T17:47:41.799Z,17.14
2022-08-05T17:50:45.536Z,17.10
2022-08-05T17:53:50.918Z,16.96
2022-08-05T17:56:58.795Z,16.94
2022-08-05T18:00:05.188Z,16.89
2022-08-05T18:03:11.193Z,16.83
2022-08-05T18:06:15.540Z,16.74
2022-08-05T18:09:20.007Z,16.56
2022-08-05T18:12:24.711Z,16.55
2022-08-05T18:15:38.516Z,16.54
2022-08-05T18:18:48.037Z,16.58
2022-08-05T18:22:08.547Z,16.42
2022-08-05T18:25:13.675Z,16.34
2022-08-05T18:28:21.808Z,16.24
2022-08-05T18:31:33.835Z,16.18
2022-08-05T18:34:42.869Z,16.04
2022-08-05T18:37:46.748Z,16.02
2022-08-05T18:41:53.784Z,15.92
2022-08-05T18:44:15.365Z,15.81
2022-08-05T18:47:38.776Z,15.74
2022-08-05T18:52:02.739Z,15.70
2022-08-05T18:54:26.311Z,15.58
2022-08-05T18:57:43.184Z,15.53
2022-08-05T19:00:53.993Z,15.41
2022-08-05T19:03:57.778Z,15.33
2022-08-05T19:07:02.919Z,15.24
2022-08-05T19:10:11.800Z,15.12
2022-08-05T19:13:16.149Z,15.15
2022-08-05T19:16:25.481Z,15.03
2022-08-05T19:19:33.807Z,14.94
2022-08-05T19:22:39.856Z,14.87
2022-08-05T19:25:43.801Z,14.85
2022-08-05T19:28:48.147Z,14.85
2022-08-05T19:31:52.108Z,14.71
2022-08-05T19:34:55.964Z,14.69
2022-08-05T19:38:06.726Z,14.65
2022-08-05T19:41:12.348Z,14.61
2022-08-05T19:44:16.578Z,14.55
2022-08-05T19:47:22.170Z,14.53
2022-08-05T19:50:27.383Z,14.49
2022-08-05T19:54:04.022Z,14.36
2022-08-05T19:56:56.860Z,14.38
2022-08-05T20:00:04.548Z,14.20
2022-08-05T20:03:11.107Z,14.03
2022-08-05T20:06:16.025Z,13.99
2022-08-05T20:09:55.180Z,13.95
2022-08-05T20:12:58.221Z,13.95
2022-08-05T20:16:01.920Z,13.81
2022-08-05T20:19:07.969Z,13.70
2022-08-05T20:22:11.705Z,13.67
2022-08-05T20:25:16.823Z,13.59
2022-08-05T20:28:20.515Z,13.61
2022-08-05T20:31:42.233Z,13.61
2022-08-05T20:34:52.084Z,13.58
2022-08-05T20:38:06.014Z,13.53
2022-08-05T20:41:12.666Z,13.49
2022-08-05T20:44:30.203Z,13.38
2022-08-05T20:47:34.644Z,13.36
2022-08-05T20:50:45.432Z,13.32
2022-08-05T20:53:55.238Z,13.24
2022-08-05T20:57:03.517Z,13.18
2022-08-05T21:00:20.979Z,13.09
2022-08-05T21:03:34.669Z,13.00
2022-08-05T21:06:45.751Z,13.04
2022-08-05T21:09:53.535Z,13.00
2022-08-05T21:13:11.077Z,12.95
2022-08-05T21:16:18.491Z,12.91
2022-08-05T21:19:23.514Z,12.85
2022-08-05T21:22:27.487Z,12.84
2022-08-05T21:25:34.033Z,12.80
2022-08-05T21:28:40.918Z,12.76
2022-08-05T21:31:51.991Z,12.64
2022-08-05T21:35:08.887Z,12.63
2022-08-05T21:38:20.253Z,12.64
2022-08-05T21:41:24.013Z,12.65
2022-08-05T21:44:29.122Z,12.65
2022-08-05T21:47:56.802Z,12.53
2022-08-05T21:50:57.338Z,12.48
2022-08-05T21:54:03.833Z,12.50
2022-08-05T21:57:30.864Z,12.51
2022-08-05T22:00:33.276Z,12.51
2022-08-05T22:03:49.007Z,12.51
2022-08-05T22:06:57.244Z,12.52
2022-08-05T22:10:01.202Z,12.53
2022-08-05T22:13:09.172Z,12.43
2022-08-05T22:16:41.640Z,12.42
2022-08-05T22:20:01.964Z,12.37
2022-08-05T22:24:00.983Z,12.34
2022-08-05T22:27:16.515Z,12.28
2022-08-05T22:30:21.034Z,12.25
2022-08-05T22:33:56.630Z,12.17
2022-08-05T22:36:51.539Z,12.18
2022-08-05T22:39:55.690Z,12.16
2022-08-05T22:43:00.229Z,12.13
2022-08-05T22:46:12.137Z,12.13
2022-08-05T22:50:21.666Z,12.00
2022-08-05T22:52:53.361Z,12.03
2022-08-05T22:55:59.346Z,12.01
2022-08-05T22:59:42.496Z,11.81
2022-08-05T23:02:29.202Z,11.73
2022-08-05T23:05:36.180Z,11.67
2022-08-05T23:08:39.983Z,11.64
2022-08-05T23:11:46.695Z,11.61
2022-08-05T23:14:53.987Z,11.61
2022-08-05T23:18:00.434Z,11.63
2022-08-05T23:21:10.088Z,11.68
2022-08-05T23:24:14.057Z,11.62
2022-08-05T23:27:20.126Z,11.60
2022-08-05T23:30:29.057Z,11.56
2022-08-05T23:34:05.218Z,11.59
2022-08-05T23:36:59.903Z,11.57
2022-08-05T23:40:07.548Z,11.53
2022-08-05T23:43:25.173Z,11.56
2022-08-05T23:46:37.434Z,11.57
2022-08-05T23:49:43.238Z,11.59
2022-08-05T23:52:51.712Z,11.58
2022-08-05T23:55:57.619Z,11.59
2022-08-05T23:59:03.102Z,11.60
